Terminal Aerodrome Forecast
Issued by NWS

Home | Current Version | Previous Version | Text Only | Print | Product List | Glossary On
Versions: 1 2 3 4 5 6 7 8 9 10 11 12 13 14 15 16 17 18 19 20
000
FTUS43 KSGF 281700
TAFJLN
TAF
KJLN 281731Z 2818/2918 12012G22KT P6SM SCT050
     FM290000 13009KT P6SM SCT120
     FM290500 15013KT P6SM SCT250 WS020/21040KT
     FM291600 16015KT P6SM SCT250=

USA.gov is the U.S. government's official web portal to all federal, state and local government web resources and services.